Time;durP1;ratioP1;P1;durP2;ratioP2;P2;SDS_P1;SDS_P2;PMS_P1;PMS_P2;Temp;Humidity;BMP_temperature;BMP_pressure;BME280_temperature;BME280_humidity;BME280_pressure;Samples;Min_cycle;Max_cycle;Signal;HPM_P1;HPM_P2
2022/08/15 00:00:33;;;;;;;9.03;6.80;;;;;;;20.81;100.00;99043.69;6279737;28;20066;-72
2022/08/15 00:03:37;;;;;;;9.55;6.93;;;;;;;20.86;100.00;99052.75;6297374;28;20322;-73
2022/08/15 00:06:42;;;;;;;10.40;6.78;;;;;;;20.77;100.00;99067.09;6296246;28;20041;-73
2022/08/15 00:09:43;;;;;;;14.18;7.10;;;;;;;20.67;100.00;99080.63;6279427;28;20405;-72
2022/08/15 00:12:44;;;;;;;11.20;7.27;;;;;;;20.62;100.00;99068.94;6279318;28;20045;-72
2022/08/15 00:15:47;;;;;;;13.77;6.87;;;;;;;20.58;100.00;99065.81;6261883;28;20387;-72
2022/08/15 00:18:49;;;;;;;9.68;7.10;;;;;;;20.47;100.00;99076.84;6295989;28;20044;-73
2022/08/15 00:21:59;;;;;;;11.98;7.50;;;;;;;20.54;100.00;99067.97;6296929;28;20459;-73
2022/08/15 00:25:01;;;;;;;14.23;7.40;;;;;;;20.50;100.00;99066.69;6295671;28;20094;-73
2022/08/15 00:28:06;;;;;;;10.32;6.82;;;;;;;20.32;100.00;99058.25;6295716;28;20040;-72
2022/08/15 00:31:10;;;;;;;12.60;6.78;;;;;;;20.38;100.00;99051.44;6295479;28;20044;-73
2022/08/15 00:34:15;;;;;;;12.35;6.88;;;;;;;20.40;100.00;99074.06;6295084;28;20125;-73
2022/08/15 00:37:18;;;;;;;11.38;6.72;;;;;;;20.30;100.00;99078.81;6295174;28;20052;-72
2022/08/15 00:40:19;;;;;;;13.75;6.65;;;;;;;20.25;100.00;99081.19;6296472;28;20043;-73
2022/08/15 00:43:21;;;;;;;13.77;7.25;;;;;;;20.24;100.00;99077.72;6245592;28;20433;-72
2022/08/15 00:46:25;;;;;;;10.18;7.00;;;;;;;20.31;100.00;99075.16;6294992;28;20101;-73
2022/08/15 00:49:30;;;;;;;11.48;7.35;;;;;;;20.29;100.00;99061.28;6295156;28;20558;-73
2022/08/15 00:52:33;;;;;;;14.73;7.22;;;;;;;20.21;100.00;99059.53;6296110;28;20044;-72
2022/08/15 00:55:38;;;;;;;13.07;7.18;;;;;;;20.14;100.00;99063.91;6278204;28;20126;-72
2022/08/15 00:58:43;;;;;;;11.27;7.55;;;;;;;20.07;100.00;99062.97;6296111;28;20041;-72
2022/08/15 01:01:44;;;;;;;14.23;7.63;;;;;;;20.05;100.00;99067.63;6294705;28;20044;-72
2022/08/15 01:04:47;;;;;;;13.32;7.10;;;;;;;20.00;100.00;99054.91;6278037;28;20036;-72
2022/08/15 01:07:51;;;;;;;11.93;7.10;;;;;;;20.01;100.00;99048.59;6295962;28;20036;-72
2022/08/15 01:11:07;;;;;;;14.00;7.53;;;;;;;19.97;100.00;99057.09;6294601;28;20128;-72
2022/08/15 01:14:08;;;;;;;12.18;7.63;;;;;;;19.89;100.00;99053.53;6294423;28;20041;-73
2022/08/15 01:17:10;;;;;;;12.82;7.72;;;;;;;19.83;100.00;99042.81;6295751;28;20470;-73
2022/08/15 01:20:27;;;;;;;11.38;8.52;;;;;;;19.87;100.00;99044.09;6295642;28;20044;-73
2022/08/15 01:23:47;;;;;;;11.10;7.72;;;;;;;19.89;100.00;99042.94;6295405;28;20047;-73
2022/08/15 01:26:48;;;;;;;11.50;7.28;;;;;;;19.83;100.00;99037.50;6295545;28;20044;-73
2022/08/15 01:29:51;;;;;;;14.73;8.97;;;;;;;19.73;100.00;99043.88;6277827;28;20044;-72
2022/08/15 01:32:55;;;;;;;11.93;7.75;;;;;;;19.56;100.00;99045.00;6295374;28;20053;-72
2022/08/15 01:35:56;;;;;;;12.57;7.85;;;;;;;19.53;100.00;99051.44;6294100;28;20405;-73
2022/08/15 01:39:14;;;;;;;13.93;7.80;;;;;;;19.44;100.00;99056.97;6277456;28;20052;-72
2022/08/15 01:42:21;;;;;;;11.23;8.02;;;;;;;19.39;100.00;99065.41;6295262;28;20037;-73
2022/08/15 01:45:26;;;;;;;11.75;7.88;;;;;;;19.40;100.00;99058.31;6294028;28;20067;-73
2022/08/15 01:48:44;;;;;;;9.63;7.22;;;;;;;19.36;100.00;99073.72;6295169;28;20106;-72
2022/08/15 01:51:46;;;;;;;11.40;7.72;;;;;;;19.38;100.00;99068.25;6294005;28;20082;-73
2022/08/15 01:54:55;;;;;;;12.98;7.63;;;;;;;19.35;100.00;99073.88;6294938;28;20045;-72
2022/08/15 01:57:56;;;;;;;13.63;7.82;;;;;;;19.31;100.00;99078.69;6293991;28;20041;-72
2022/08/15 02:01:06;;;;;;;12.68;7.57;;;;;;;19.22;100.00;99074.44;6293784;28;20044;-72
2022/08/15 02:04:09;;;;;;;12.20;8.18;;;;;;;19.13;100.00;99071.03;6293716;28;20037;-72
2022/08/15 02:07:18;;;;;;;9.82;7.75;;;;;;;19.17;100.00;99072.31;6293746;28;20052;-72
2022/08/15 02:10:25;;;;;;;11.98;8.15;;;;;;;19.12;100.00;99075.47;6294907;28;20051;-72
2022/08/15 02:13:26;;;;;;;10.18;7.80;;;;;;;19.07;100.00;99072.53;6293528;28;20052;-72
2022/08/15 02:16:32;;;;;;;12.45;8.40;;;;;;;18.99;100.00;99066.47;6244083;28;20075;-72
2022/08/15 02:19:32;;;;;;;13.30;8.70;;;;;;;18.96;100.00;99058.84;6293614;28;20040;-73
2022/08/15 02:22:33;;;;;;;11.30;8.13;;;;;;;19.00;100.00;99058.34;6293575;28;20403;-73
2022/08/15 02:25:35;;;;;;;11.45;8.23;;;;;;;18.95;100.00;99050.09;6260012;28;20139;-72
2022/08/15 02:28:39;;;;;;;11.85;8.27;;;;;;;18.90;100.00;99048.00;6294701;28;20098;-72
2022/08/15 02:31:40;;;;;;;11.60;8.18;;;;;;;18.90;100.00;99049.78;6294706;28;20051;-72
2022/08/15 02:34:44;;;;;;;14.47;8.37;;;;;;;18.93;100.00;99050.28;6276661;28;20119;-73
2022/08/15 02:37:45;;;;;;;14.45;7.82;;;;;;;18.84;100.00;99039.91;6294366;28;20048;-73
2022/08/15 02:40:50;;;;;;;13.90;8.68;;;;;;;18.81;100.00;99056.94;6299302;28;20036;-73
2022/08/15 02:43:51;;;;;;;13.40;8.15;;;;;;;18.78;100.00;99072.25;6297967;28;20045;-73
2022/08/15 02:46:54;;;;;;;13.20;7.70;;;;;;;18.66;100.00;99070.00;6299274;28;20045;-72
2022/08/15 02:50:00;;;;;;;17.20;8.38;;;;;;;18.61;100.00;99077.59;6298035;28;20041;-73
2022/08/15 02:53:15;;;;;;;14.65;8.50;;;;;;;18.56;100.00;99074.66;6298104;28;20469;-73
2022/08/15 02:56:23;;;;;;;11.88;7.97;;;;;;;18.44;100.00;99076.81;6299045;28;20045;-73
2022/08/15 02:59:25;;;;;;;12.38;7.45;;;;;;;18.40;100.00;99078.13;6298961;28;20044;-73
2022/08/15 03:02:26;;;;;;;11.67;8.00;;;;;;;18.27;100.00;99067.28;6298787;28;20063;-73
2022/08/15 03:05:30;;;;;;;14.45;8.52;;;;;;;18.36;100.00;99073.38;6298701;28;20524;-72
2022/08/15 03:08:31;;;;;;;14.50;7.88;;;;;;;18.24;100.00;99076.38;6297662;28;20037;-72
2022/08/15 03:11:38;;;;;;;10.90;7.33;;;;;;;18.27;100.00;99072.56;6297555;28;20105;-72
2022/08/15 03:14:39;;;;;;;11.82;7.95;;;;;;;18.24;100.00;99072.88;6297433;28;20068;-73
2022/08/15 03:17:40;;;;;;;10.60;6.90;;;;;;;18.23;100.00;99071.25;6280806;28;20045;-72
2022/08/15 03:20:45;;;;;;;13.73;8.43;;;;;;;18.18;100.00;99084.09;6280559;28;20048;-72
2022/08/15 03:23:50;;;;;;;13.10;8.18;;;;;;;18.19;100.00;99094.50;6298416;28;20048;-72
2022/08/15 03:26:55;;;;;;;11.13;7.75;;;;;;;18.13;100.00;99088.06;6297068;28;20071;-72
2022/08/15 03:29:57;;;;;;;10.52;7.65;;;;;;;18.13;100.00;99089.88;6280818;28;20067;-72
2022/08/15 03:32:58;;;;;;;12.20;7.35;;;;;;;18.15;100.00;99084.44;6280630;28;20048;-73
2022/08/15 03:36:00;;;;;;;12.82;7.68;;;;;;;18.13;100.00;99080.16;6296884;28;20037;-72
2022/08/15 03:39:03;;;;;;;14.82;7.78;;;;;;;18.13;100.00;99053.75;6296729;28;20744;-72
2022/08/15 03:42:09;;;;;;;11.13;7.57;;;;;;;18.12;100.00;99056.56;6298081;28;20495;-72
2022/08/15 03:45:11;;;;;;;16.60;7.90;;;;;;;18.13;100.00;99055.56;6297808;28;20040;-73
2022/08/15 03:48:14;;;;;;;10.93;7.40;;;;;;;18.20;100.00;99064.50;6296623;28;20045;-72
2022/08/15 03:51:18;;;;;;;10.80;7.25;;;;;;;18.20;100.00;99080.34;6295487;28;20101;-72
2022/08/15 03:54:19;;;;;;;11.57;7.47;;;;;;;18.19;100.00;99070.75;6296509;28;20048;-72
2022/08/15 03:57:23;;;;;;;17.43;7.60;;;;;;;18.16;100.00;99081.66;6296417;28;20041;-72
2022/08/15 04:00:29;;;;;;;11.35;7.95;;;;;;;18.19;100.00;99064.66;6296497;28;20163;-73
2022/08/15 04:03:33;;;;;;;12.02;8.32;;;;;;;18.16;100.00;99057.91;6296101;28;20129;-72
2022/08/15 04:06:35;;;;;;;13.75;7.63;;;;;;;18.20;100.00;99059.22;6280070;28;20073;-72
2022/08/15 04:09:38;;;;;;;16.58;7.90;;;;;;;18.23;100.00;99056.22;6279860;28;20044;-72
2022/08/15 04:12:41;;;;;;;15.18;8.27;;;;;;;18.27;100.00;99048.78;6295998;28;20416;-73
2022/08/15 04:15:41;;;;;;;13.15;8.65;;;;;;;18.27;100.00;99062.00;6279248;28;20063;-73
2022/08/15 04:18:43;;;;;;;12.00;8.10;;;;;;;18.34;100.00;99065.59;6295912;28;20405;-72
2022/08/15 04:21:45;;;;;;;12.77;7.95;;;;;;;18.44;100.00;99066.25;6297006;28;20044;-73
2022/08/15 04:24:48;;;;;;;15.10;8.90;;;;;;;18.58;100.00;99067.38;6279021;28;20048;-72
2022/08/15 04:27:52;;;;;;;14.82;8.63;;;;;;;18.68;100.00;99059.28;6279477;28;20041;-72
2022/08/15 04:30:58;;;;;;;13.27;8.75;;;;;;;18.77;100.00;99060.88;6296765;28;20484;-72
2022/08/15 04:34:03;;;;;;;14.27;8.90;;;;;;;18.82;100.00;99071.81;6295724;28;20082;-72
2022/08/15 04:37:04;;;;;;;13.80;8.50;;;;;;;18.87;100.00;99063.34;6296336;28;20048;-73
2022/08/15 04:40:09;;;;;;;15.80;8.80;;;;;;;18.98;100.00;99064.78;6262360;28;20101;-72
2022/08/15 04:43:11;;;;;;;10.85;7.18;;;;;;;19.07;100.00;99067.25;6296435;28;20047;-73
2022/08/15 04:46:11;;;;;;;13.80;7.90;;;;;;;19.16;100.00;99065.38;6295181;28;20037;-72
2022/08/15 04:49:13;;;;;;;13.10;8.27;;;;;;;19.17;100.00;99059.09;6295389;28;20045;-72
2022/08/15 04:52:19;;;;;;;22.27;8.50;;;;;;;19.33;100.00;99053.72;6296366;28;20115;-73
2022/08/15 04:55:22;;;;;;;11.27;7.18;;;;;;;19.39;100.00;99056.66;6296115;28;20075;-72
2022/08/15 04:58:23;;;;;;;15.00;7.63;;;;;;;19.50;100.00;99056.28;6294846;28;20480;-73
2022/08/15 05:01:24;;;;;;;12.43;8.07;;;;;;;19.56;100.00;99055.56;6294470;28;20044;-72
2022/08/15 05:04:25;;;;;;;10.63;7.70;;;;;;;19.62;100.00;99057.50;6278259;28;20052;-73
2022/08/15 05:07:27;;;;;;;13.53;7.53;;;;;;;19.68;100.00;99069.19;6294663;28;20564;-73
2022/08/15 05:10:36;;;;;;;12.45;7.88;;;;;;;19.73;100.00;99065.06;6294751;28;20330;-73
2022/08/15 05:13:38;;;;;;;10.27;7.07;;;;;;;19.86;100.00;99072.41;6294695;28;20059;-72
2022/08/15 05:16:39;;;;;;;13.30;7.47;;;;;;;19.97;100.00;99068.50;6295594;28;20041;-72
2022/08/15 05:19:41;;;;;;;13.18;7.15;;;;;;;20.01;100.00;99067.16;6294688;28;20400;-72
2022/08/15 05:23:13;;;;;;;17.13;8.63;;;;;;;20.09;100.00;99076.84;6294424;28;20048;-72
2022/08/15 05:26:15;;;;;;;12.13;7.55;;;;;;;20.13;100.00;99078.13;6274762;28;20057;-73
2022/08/15 05:29:16;;;;;;;12.10;7.97;;;;;;;20.20;100.00;99081.72;6294287;28;20123;-73
2022/08/15 05:32:18;;;;;;;11.73;8.10;;;;;;;20.30;100.00;99092.91;6277764;28;20156;-73
2022/08/15 05:35:19;;;;;;;9.95;7.60;;;;;;;20.37;100.00;99082.41;6295335;28;20044;-73
2022/08/15 05:38:27;;;;;;;11.00;7.60;;;;;;;20.40;100.00;99078.56;6293956;28;20049;-73
2022/08/15 05:42:09;;;;;;;13.27;7.93;;;;;;;20.42;100.00;99084.50;6295234;28;20098;-74
2022/08/15 05:45:17;;;;;;;12.55;7.25;;;;;;;20.49;100.00;99075.66;6199561;28;20058;-74
2022/08/15 05:48:28;;;;;;;12.32;7.70;;;;;;;20.67;100.00;99082.44;6293895;28;20075;-73
2022/08/15 05:51:47;;;;;;;13.88;7.38;;;;;;;20.81;100.00;99075.50;6294025;28;20123;-73
2022/08/15 05:54:57;;;;;;;11.52;8.07;;;;;;;21.01;100.00;99076.59;6294029;28;20044;-73
2022/08/15 05:58:13;;;;;;;16.33;7.65;;;;;;;21.12;100.00;99075.28;6293703;28;20123;-74
2022/08/15 06:01:36;;;;;;;20.50;7.57;;;;;;;21.14;100.00;99078.56;6294904;28;20044;-74
2022/08/15 06:04:56;;;;;;;21.02;7.78;;;;;;;21.28;100.00;99100.78;6295006;28;20048;-73
2022/08/15 06:08:00;;;;;;;20.33;7.93;;;;;;;21.30;100.00;99104.06;6293551;28;20049;-73
2022/08/15 06:11:06;;;;;;;20.20;7.30;;;;;;;21.36;99.73;99099.88;6276932;28;20489;-73
2022/08/15 06:14:15;;;;;;;14.35;7.50;;;;;;;21.51;100.00;99104.13;6280470;28;20606;-74
2022/08/15 06:17:23;;;;;;;20.05;7.72;;;;;;;21.70;97.68;99101.88;6298688;28;20123;-73
2022/08/15 06:21:01;;;;;;;9.70;7.65;;;;;;;21.80;97.29;99096.25;6298624;28;20094;-73
2022/08/15 06:24:21;;;;;;;22.48;7.20;;;;;;;22.03;96.17;99109.34;6293831;28;20064;-73
2022/08/15 06:27:35;;;;;;;15.75;7.28;;;;;;;22.20;96.58;99102.75;6299766;28;20044;-74
2022/08/15 06:30:45;;;;;;;14.00;7.55;;;;;;;22.35;91.65;99099.22;6299767;28;20044;-73
2022/08/15 06:34:14;;;;;;;20.35;7.50;;;;;;;22.42;92.38;99106.22;6298326;28;20047;-73
2022/08/15 06:37:34;;;;;;;17.17;7.60;;;;;;;22.56;90.32;99095.69;6299343;28;20049;-73
2022/08/15 06:40:53;;;;;;;14.90;7.55;;;;;;;22.76;91.23;99103.81;6281586;28;20519;-73
2022/08/15 06:43:56;;;;;;;13.95;7.57;;;;;;;22.63;88.99;99102.69;6298040;28;20398;-74
2022/08/15 06:47:05;;;;;;;12.88;7.55;;;;;;;22.64;89.69;99111.50;6299289;28;20036;-73
2022/08/15 06:50:12;;;;;;;13.93;7.53;;;;;;;22.98;87.97;99108.00;6299187;28;20037;-73
2022/08/15 06:53:50;;;;;;;12.25;7.43;;;;;;;23.17;84.24;99114.47;6297979;28;20055;-74
2022/08/15 06:57:02;;;;;;;17.40;7.43;;;;;;;23.18;88.34;99108.13;6293963;28;20509;-73
2022/08/15 07:00:15;;;;;;;13.32;7.25;;;;;;;23.24;86.73;99107.31;6297842;28;20037;-74
2022/08/15 07:03:43;;;;;;;11.45;7.28;;;;;;;23.62;84.07;99106.03;6297586;28;20123;-73
2022/08/15 07:07:00;;;;;;;12.80;7.28;;;;;;;23.86;82.43;99108.13;6297427;28;20056;-73
2022/08/15 07:10:08;;;;;;;19.20;7.35;;;;;;;23.97;81.39;99104.06;6299058;28;20087;-73
2022/08/15 07:13:14;;;;;;;11.75;7.72;;;;;;;24.17;81.30;99113.91;6298639;28;20476;-73
2022/08/15 07:16:24;;;;;;;16.08;7.72;;;;;;;24.48;84.09;99115.94;6280583;28;20048;-74
2022/08/15 07:19:28;;;;;;;14.85;9.05;;;;;;;24.64;79.78;99114.72;6298464;28;20040;-74
2022/08/15 07:22:31;;;;;;;12.77;7.65;;;;;;;24.72;78.28;99126.00;6297241;28;20347;-73
2022/08/15 07:25:33;;;;;;;17.30;7.20;;;;;;;25.05;78.89;99127.75;6296780;28;20055;-73
2022/08/15 07:28:37;;;;;;;10.23;7.28;;;;;;;25.35;79.64;99119.28;6297070;28;20115;-74
2022/08/15 07:31:43;;;;;;;12.88;7.15;;;;;;;25.42;76.35;99117.38;6298351;28;20045;-74
2022/08/15 07:35:02;;;;;;;15.20;7.43;;;;;;;25.57;72.37;99122.44;6280979;28;20332;-73
2022/08/15 07:38:12;;;;;;;11.23;7.13;;;;;;;25.60;71.89;99122.03;6297892;28;20113;-75
2022/08/15 07:41:17;;;;;;;12.15;6.75;;;;;;;25.82;70.06;99133.19;6296892;28;20036;-74
2022/08/15 07:44:20;;;;;;;7.78;6.30;;;;;;;26.03;70.59;99134.72;6296660;28;20040;-74
2022/08/15 07:47:30;;;;;;;8.00;6.38;;;;;;;26.18;67.39;99136.28;6279939;28;20055;-74
2022/08/15 07:50:47;;;;;;;10.57;5.83;;;;;;;26.24;66.95;99128.19;6297892;28;20037;-73
2022/08/15 07:54:24;;;;;;;11.38;6.20;;;;;;;26.46;71.78;99125.97;6297775;28;20544;-74
2022/08/15 07:57:27;;;;;;;12.20;6.57;;;;;;;26.79;65.77;99146.25;6296385;28;20040;-74
2022/08/15 08:00:34;;;;;;;9.10;6.60;;;;;;;26.57;64.24;99135.13;6296284;28;20526;-74
2022/08/15 08:03:39;;;;;;;8.82;5.80;;;;;;;26.58;65.51;99134.09;6297576;28;20048;-73
2022/08/15 08:07:06;;;;;;;11.40;6.90;;;;;;;26.69;61.93;99133.38;6297488;28;20106;-74
2022/08/15 08:10:17;;;;;;;8.90;5.80;;;;;;;26.79;63.55;99138.22;6297272;28;20094;-74
2022/08/15 08:14:00;;;;;;;11.95;5.65;;;;;;;27.10;60.79;99123.88;6279403;28;20053;-74
2022/08/15 08:17:15;;;;;;;10.10;5.75;;;;;;;27.33;60.01;99119.72;6297218;28;20095;-74
2022/08/15 08:20:19;;;;;;;12.48;6.40;;;;;;;27.53;61.40;99127.50;6297055;28;20075;-74
2022/08/15 08:23:29;;;;;;;13.05;6.15;;;;;;;27.85;60.48;99127.25;6295695;28;20044;-74
2022/08/15 08:27:01;;;;;;;10.63;6.65;;;;;;;28.14;60.27;99134.44;6295777;28;20101;-74
2022/08/15 08:30:10;;;;;;;11.80;5.80;;;;;;;28.16;57.59;99133.41;6296801;28;20546;-74
2022/08/15 08:37:36;;;;;;;11.75;6.20;;;;;;;28.84;59.90;99140.13;6224204;28;20056;-74
2022/08/15 08:44:34;;;;;;;8.40;5.88;;;;;;;28.45;57.78;99137.88;6265576;28;20443;-74
2022/08/15 08:47:49;;;;;;;12.25;5.88;;;;;;;28.98;56.32;99138.81;6295165;28;20041;-74
2022/08/15 08:50:53;;;;;;;7.93;5.18;;;;;;;29.19;57.57;99137.38;6296425;28;20044;-74
2022/08/15 08:54:06;;;;;;;9.90;5.57;;;;;;;29.44;54.68;99129.00;6296274;28;20499;-74
2022/08/15 08:57:14;;;;;;;7.43;5.45;;;;;;;29.41;52.32;99131.38;6294962;28;20052;-74
2022/08/15 09:00:22;;;;;;;10.82;5.30;;;;;;;29.48;52.78;99132.03;6278715;28;20454;-73
2022/08/15 09:03:34;;;;;;;8.80;5.55;;;;;;;29.55;50.07;99119.28;6296001;28;20495;-74
2022/08/15 09:06:41;;;;;;;10.75;5.85;;;;;;;29.81;52.26;99122.47;6294803;28;20036;-74
2022/08/15 09:09:49;;;;;;;7.38;5.93;;;;;;;30.05;51.36;99123.16;6294497;28;20048;-74
2022/08/15 09:16:19;;;;;;;10.20;5.30;;;;;;;29.48;49.12;99114.03;6295755;28;20048;-74
2022/08/15 09:19:32;;;;;;;8.88;5.80;;;;;;;29.88;50.06;99107.81;6294527;28;20447;-74
2022/08/15 09:22:36;;;;;;;7.90;5.43;;;;;;;30.36;51.73;99110.22;6294251;28;20114;-75
2022/08/15 09:26:04;;;;;;;12.45;5.30;;;;;;;30.71;47.89;99116.09;6295654;28;20141;-74
2022/08/15 09:29:18;;;;;;;8.50;4.88;;;;;;;30.49;46.98;99115.22;6295417;28;20502;-74
2022/08/15 09:32:28;;;;;;;9.07;4.75;;;;;;;30.86;49.99;99106.59;6294263;28;20419;-75
2022/08/15 09:36:01;;;;;;;9.07;5.18;;;;;;;31.36;47.13;99105.63;6294184;28;20041;-75
2022/08/15 09:39:26;;;;;;;7.28;4.97;;;;;;;31.42;47.97;99110.00;6257601;28;20184;-74
2022/08/15 09:42:46;;;;;;;11.10;5.88;;;;;;;31.50;48.37;99104.19;6295236;28;20037;-74
2022/08/15 09:45:55;;;;;;;6.35;4.93;;;;;;;31.55;46.94;99113.34;6295228;28;20439;-74
2022/08/15 09:49:17;;;;;;;13.18;5.10;;;;;;;31.77;46.13;99111.41;6293922;28;20064;-74
2022/08/15 09:52:35;;;;;;;8.40;4.72;;;;;;;31.75;41.90;99105.47;6295303;28;20044;-74
2022/08/15 09:55:48;;;;;;;6.85;4.65;;;;;;;31.85;42.33;99102.88;6293946;28;20139;-74
2022/08/15 09:59:04;;;;;;;13.48;5.00;;;;;;;31.86;42.72;99109.91;6295085;28;20045;-74
2022/08/15 10:02:19;;;;;;;7.25;4.70;;;;;;;32.13;43.42;99099.09;6293636;28;20053;-74
2022/08/15 10:05:42;;;;;;;6.57;5.25;;;;;;;32.19;41.46;99099.94;6293746;28;20080;-74
2022/08/15 10:08:54;;;;;;;10.18;4.72;;;;;;;32.06;41.08;99094.97;6293497;28;20049;-74
2022/08/15 10:12:10;;;;;;;7.10;5.03;;;;;;;32.32;41.38;99095.97;6293685;28;20036;-74
2022/08/15 10:15:41;;;;;;;8.43;4.70;;;;;;;32.51;43.99;99093.66;6294916;28;20043;-74
2022/08/15 10:18:45;;;;;;;10.52;5.03;;;;;;;32.42;40.93;99093.34;6294807;28;20454;-74
2022/08/15 10:21:46;;;;;;;8.98;4.53;;;;;;;31.93;41.76;99091.59;6293817;28;20119;-75
2022/08/15 10:25:07;;;;;;;;;;;;;;;32.24;39.17;99081.06;6260581;28;20053;-74
2022/08/15 10:28:11;;;;;;;7.25;5.05;;;;;;;32.63;42.76;99078.09;6293373;28;19924;-74
2022/08/15 10:31:11;;;;;;;9.25;4.60;;;;;;;32.70;39.83;99075.19;6294491;28;20404;-74
2022/08/15 10:34:37;;;;;;;;;;;;;;;33.17;40.27;99076.19;6293822;28;20074;-74
2022/08/15 10:37:54;;;;;;;6.40;4.60;;;;;;;33.42;41.16;99068.16;6294495;28;20019;-74
2022/08/15 10:41:10;;;;;;;9.43;5.20;;;;;;;33.29;38.35;99063.25;6294468;28;20560;-73
2022/08/15 10:44:46;;;;;;;7.72;4.68;;;;;;;33.32;36.73;99060.81;6294612;28;20052;-73
2022/08/15 10:48:05;;;;;;;8.02;4.45;;;;;;;33.68;38.07;99060.09;6293379;28;20044;-74
2022/08/15 10:51:20;;;;;;;6.65;4.40;;;;;;;33.94;38.58;99060.91;6294411;28;20044;-74
2022/08/15 10:54:58;;;;;;;8.27;4.15;;;;;;;34.03;37.46;99053.84;6292998;28;20055;-74
2022/08/15 10:58:12;;;;;;;5.90;4.57;;;;;;;34.09;39.09;99054.66;6293083;28;20048;-74
2022/08/15 11:01:20;;;;;;;9.55;4.68;;;;;;;34.41;36.39;99054.38;6297567;28;20658;-74
2022/08/15 11:04:26;;;;;;;5.80;4.43;;;;;;;34.58;35.15;99042.41;6298880;28;20037;-74
2022/08/15 11:07:30;;;;;;;8.30;4.30;;;;;;;35.00;38.03;99047.38;6281538;28;20056;-74
2022/08/15 11:10:40;;;;;;;9.52;4.28;;;;;;;34.93;34.19;99049.59;6298726;28;20071;-74
2022/08/15 11:13:44;;;;;;;4.72;4.13;;;;;;;34.30;33.38;99048.13;6280817;28;20045;-74
2022/08/15 11:16:51;;;;;;;10.77;4.30;;;;;;;33.03;38.34;99036.16;6297484;28;20044;-74
2022/08/15 11:20:02;;;;;;;6.72;4.70;;;;;;;32.46;41.06;99047.75;6280913;28;20052;-74
2022/08/15 11:23:04;;;;;;;8.18;4.50;;;;;;;31.77;38.44;99030.53;6297125;28;20126;-74
2022/08/15 11:26:10;;;;;;;9.68;4.88;;;;;;;31.45;43.23;99041.31;6298467;28;20048;-74
2022/08/15 11:29:15;;;;;;;8.57;4.20;;;;;;;31.21;41.53;99033.50;6298436;28;20462;-74
2022/08/15 11:32:31;;;;;;;8.93;4.38;;;;;;;31.06;43.36;99034.16;6296968;28;20052;-74
2022/08/15 11:35:32;;;;;;;7.70;4.88;;;;;;;30.77;41.75;99019.25;6297188;28;20127;-74
2022/08/15 11:38:36;;;;;;;7.07;4.65;;;;;;;30.55;48.28;99035.38;6263435;28;20088;-74
2022/08/15 11:41:40;;;;;;;6.82;4.10;;;;;;;30.33;43.04;99020.84;6297960;28;20041;-74
2022/08/15 11:44:52;;;;;;;8.60;4.43;;;;;;;30.55;42.49;99008.47;6296772;28;20055;-74
2022/08/15 11:47:57;;;;;;;7.07;4.38;;;;;;;30.35;46.53;99006.31;6296821;28;20036;-74
2022/08/15 11:51:09;;;;;;;7.18;4.47;;;;;;;30.42;41.96;99015.84;6297749;28;20477;-74
2022/08/15 11:54:10;;;;;;;6.90;4.82;;;;;;;30.46;40.96;99008.09;6296646;28;20040;-74
2022/08/15 11:57:20;;;;;;;;;;;;;;;30.57;40.36;99006.34;6297093;28;20500;-74
2022/08/15 12:00:57;;;;;;;7.43;4.18;;;;;;;30.34;41.79;99000.13;6296284;28;20061;-74
2022/08/15 12:04:04;;;;;;;6.50;4.88;;;;;;;30.26;43.09;99005.91;6297588;28;20121;-74
2022/08/15 12:07:23;;;;;;;9.00;4.63;;;;;;;30.36;41.20;99008.78;6296248;28;20481;-74
2022/08/15 12:10:41;;;;;;;13.25;4.25;;;;;;;30.37;41.00;99005.00;6295063;28;20057;-74
2022/08/15 12:14:13;;;;;;;8.32;4.15;;;;;;;30.39;45.72;98999.38;6296016;28;20048;-74
2022/08/15 12:17:29;;;;;;;5.30;4.32;;;;;;;30.50;43.96;98987.69;6297269;28;20071;-74
2022/08/15 12:20:48;;;;;;;5.88;4.63;;;;;;;30.49;43.64;98994.94;6279717;28;20143;-74
2022/08/15 12:23:55;;;;;;;5.85;4.07;;;;;;;30.56;48.93;98985.88;6295864;28;20052;-74
2022/08/15 12:27:02;;;;;;;5.32;4.18;;;;;;;30.34;40.72;98989.38;6296991;28;20459;-74
2022/08/15 12:30:06;;;;;;;6.18;4.65;;;;;;;30.53;42.03;98981.81;6295644;28;20049;-74
2022/08/15 12:33:08;;;;;;;5.13;3.97;;;;;;;30.62;38.58;98974.09;6297008;28;20051;-74
2022/08/15 12:36:12;;;;;;;6.38;4.68;;;;;;;30.72;45.20;98975.06;6262535;28;20219;-74
2022/08/15 12:39:16;;;;;;;5.47;4.40;;;;;;;30.64;43.72;98972.81;6296552;28;20147;-74
2022/08/15 12:42:30;;;;;;;4.43;4.03;;;;;;;30.83;43.56;98967.91;6296414;28;20032;-74
2022/08/15 12:45:34;;;;;;;6.43;4.47;;;;;;;30.78;39.37;98977.78;6296955;28;20046;-74
2022/08/15 12:48:40;;;;;;;8.30;4.68;;;;;;;30.73;41.14;98978.56;6296319;28;20500;-74
2022/08/15 12:51:41;;;;;;;8.95;4.00;;;;;;;30.69;43.62;98975.53;6296447;28;20052;-74
2022/08/15 12:54:42;;;;;;;;;;;;;;;30.72;46.68;98974.22;6279091;28;20032;-74
2022/08/15 12:57:43;;;;;;;9.73;4.50;;;;;;;30.65;45.99;98976.31;6278390;28;19920;-75
2022/08/15 13:00:49;;;;;;;11.38;4.32;;;;;;;30.61;46.54;98965.22;6295053;28;20052;-74
2022/08/15 13:03:53;;;;;;;5.22;3.63;;;;;;;30.68;44.69;98957.78;6296082;28;20041;-74
2022/08/15 13:06:57;;;;;;;7.05;4.10;;;;;;;30.90;45.25;98949.69;6294802;28;20648;-74
2022/08/15 13:10:00;;;;;;;6.00;3.90;;;;;;;31.06;44.46;98947.97;6277956;28;20412;-74
2022/08/15 13:13:01;;;;;;;9.30;4.07;;;;;;;31.19;43.88;98949.41;6295759;28;20048;-74
2022/08/15 13:16:06;;;;;;;5.35;3.88;;;;;;;31.21;45.39;98959.94;6261498;28;20052;-74
2022/08/15 13:19:13;;;;;;;6.55;3.65;;;;;;;31.22;45.82;98954.31;6295811;28;20086;-74
2022/08/15 13:25:35;;;;;;;5.85;3.78;;;;;;;30.67;42.99;98941.88;6280181;28;20060;-74
2022/08/15 13:28:38;;;;;;;6.38;3.92;;;;;;;30.84;44.99;98939.88;6261258;28;20040;-74
2022/08/15 13:31:40;;;;;;;5.00;4.00;;;;;;;30.92;43.35;98942.16;6294139;28;20051;-74
2022/08/15 13:34:45;;;;;;;7.60;4.20;;;;;;;31.12;44.77;98938.06;6277766;28;20040;-74
2022/08/15 13:37:47;;;;;;;5.45;3.95;;;;;;;31.28;42.94;98941.69;6295327;28;20097;-74
2022/08/15 13:40:50;;;;;;;5.43;3.70;;;;;;;31.38;41.89;98941.78;6277410;28;20189;-74
2022/08/15 13:43:54;;;;;;;5.43;3.72;;;;;;;31.15;40.52;98950.19;6277853;28;20780;-74
2022/08/15 13:46:56;;;;;;;5.55;3.67;;;;;;;31.07;43.43;98946.06;6294067;28;20058;-74
2022/08/15 13:50:00;;;;;;;8.30;3.70;;;;;;;31.18;43.50;98949.69;6277390;28;20397;-74
2022/08/15 13:53:01;;;;;;;7.18;3.78;;;;;;;31.12;41.26;98952.31;6276951;28;20416;-74
2022/08/15 13:56:02;;;;;;;;;;;;;;;31.25;40.36;98952.97;6294429;28;20044;-74
2022/08/15 13:59:06;;;;;;;12.55;4.10;;;;;;;31.29;43.38;98957.59;6293893;28;19921;-73
2022/08/15 14:02:12;;;;;;;5.07;3.75;;;;;;;31.19;42.50;98954.00;6294908;28;20101;-74
2022/08/15 14:05:16;;;;;;;9.63;3.75;;;;;;;31.20;42.86;98951.06;6295071;28;20072;-74
2022/08/15 14:08:17;;;;;;;5.63;4.13;;;;;;;31.30;43.26;98945.75;6276987;28;20053;-74
2022/08/15 14:11:18;;;;;;;;;;;;;;;31.24;41.12;98938.69;6294264;28;20044;-74
2022/08/15 14:14:19;;;;;;;7.93;4.10;;;;;;;31.27;38.43;98942.75;6294962;28;19924;-74
2022/08/15 14:17:20;;;;;;;10.27;3.92;;;;;;;31.27;41.78;98938.16;6276852;28;20048;-74
2022/08/15 14:20:27;;;;;;;9.40;3.67;;;;;;;31.12;39.40;98940.75;6277578;28;20520;-74
2022/08/15 14:23:28;;;;;;;4.45;3.30;;;;;;;30.97;43.25;98940.59;6260086;28;20049;-74
2022/08/15 14:26:32;;;;;;;;;;;;;;;31.00;43.06;98940.91;6277457;28;20040;-74
2022/08/15 14:29:39;;;;;;;5.50;3.35;;;;;;;31.10;42.20;98942.88;6293523;28;20403;-74
2022/08/15 14:32:43;;;;;;;9.07;3.47;;;;;;;31.17;40.48;98943.47;6293424;28;20065;-74
2022/08/15 14:35:44;;;;;;;6.13;3.63;;;;;;;30.83;40.85;98951.75;6298114;28;20075;-74
2022/08/15 14:38:49;;;;;;;14.80;3.50;;;;;;;30.56;43.49;98940.94;6281669;28;20083;-74
2022/08/15 14:41:52;;;;;;;9.50;3.53;;;;;;;30.23;44.62;98942.66;6299322;28;20388;-74
2022/08/15 14:44:56;;;;;;;7.03;3.17;;;;;;;30.12;44.90;98946.28;6298177;28;20330;-74
2022/08/15 14:47:57;;;;;;;7.40;3.22;;;;;;;29.96;44.05;98936.34;6297950;28;20051;-73
2022/08/15 14:51:00;;;;;;;6.45;3.28;;;;;;;29.93;45.00;98938.47;6281446;28;20110;-74